Time;durP1;ratioP1;P1;durP2;ratioP2;P2;SDS_P1;SDS_P2;PMS_P1;PMS_P2;Temp;Humidity;BMP_temperature;BMP_pressure;BME280_temperature;BME280_humidity;BME280_pressure;Samples;Min_cycle;Max_cycle;Signal;HPM_P1;HPM_P2
2023/04/11 00:02:12;;;;;;;5.53;1.73;;;;;;;;;;5083342;28;20115;-60
2023/04/11 00:04:39;;;;;;;14.20;3.53;;;;;;;;;;5085012;28;20128;-60
2023/04/11 00:07:09;;;;;;;4.55;2.05;;;;;;;;;;5081889;28;20040;-60
2023/04/11 00:09:35;;;;;;;14.48;3.00;;;;;;;;;;5082345;28;20057;-61
2023/04/11 00:12:01;;;;;;;13.65;3.33;;;;;;;;;;5068950;28;20050;-60
2023/04/11 00:14:31;;;;;;;5.45;2.13;;;;;;;;;;5084800;28;20511;-60
2023/04/11 00:16:59;;;;;;;9.73;2.60;;;;;;;;;;5085025;28;20048;-60
2023/04/11 00:19:27;;;;;;;6.75;2.53;;;;;;;;;;5082708;27;20040;-60
2023/04/11 00:21:57;;;;;;;7.28;2.10;;;;;;;;;;5082202;28;20040;-60
2023/04/11 00:24:23;;;;;;;6.88;2.00;;;;;;;;;;5075965;28;20047;-60
2023/04/11 00:26:50;;;;;;;5.25;1.60;;;;;;;;;;5082700;28;20071;-60
2023/04/11 00:29:16;;;;;;;11.45;2.70;;;;;;;;;;5084217;28;20044;-60
2023/04/11 00:31:42;;;;;;;6.78;2.10;;;;;;;;;;5082376;28;20677;-60
2023/04/11 00:34:08;;;;;;;7.97;2.63;;;;;;;;;;5083402;28;20049;-60
2023/04/11 00:36:34;;;;;;;5.35;1.63;;;;;;;;;;5084269;28;20040;-60
2023/04/11 00:39:00;;;;;;;9.48;2.53;;;;;;;;;;5084786;28;20040;-60
2023/04/11 00:41:26;;;;;;;12.88;2.35;;;;;;;;;;5079325;28;20040;-60
2023/04/11 00:43:53;;;;;;;8.63;2.65;;;;;;;;;;5081282;28;20041;-60
2023/04/11 00:46:20;;;;;;;7.32;2.75;;;;;;;;;;5083151;28;20051;-60
2023/04/11 00:48:46;;;;;;;7.38;2.85;;;;;;;;;;5081945;28;20139;-60
2023/04/11 00:51:12;;;;;;;8.45;2.50;;;;;;;;;;5081858;28;20044;-60
2023/04/11 00:53:38;;;;;;;11.07;2.20;;;;;;;;;;5082025;28;20040;-60
2023/04/11 00:56:05;;;;;;;5.22;1.90;;;;;;;;;;5081850;28;20865;-60
2023/04/11 00:58:32;;;;;;;10.15;2.35;;;;;;;;;;5065745;28;20041;-60
2023/04/11 01:00:59;;;;;;;6.00;2.70;;;;;;;;;;5078811;28;20532;-60
2023/04/11 01:03:25;;;;;;;5.50;2.17;;;;;;;;;;5080702;28;20421;-60
2023/04/11 03:43:00;;;;;;;10.13;2.33;;;;;;;;;;5045039;28;20456;-60
2023/04/11 03:45:27;;;;;;;11.35;1.98;;;;;;;;;;5026829;28;20045;-60
2023/04/11 03:47:53;;;;;;;5.50;2.47;;;;;;;;;;5045560;28;20045;-60
2023/04/11 03:50:19;;;;;;;12.20;3.50;;;;;;;;;;5029869;28;20042;-60
2023/04/11 03:52:45;;;;;;;9.32;2.25;;;;;;;;;;5043159;28;20041;-60
2023/04/11 03:55:11;;;;;;;6.70;1.83;;;;;;;;;;5044777;28;20045;-60
2023/04/11 03:57:37;;;;;;;8.98;2.42;;;;;;;;;;5044346;28;20172;-60
2023/04/11 04:00:05;;;;;;;9.88;3.00;;;;;;;;;;5028613;28;20041;-60
2023/04/11 04:02:31;;;;;;;6.65;2.30;;;;;;;;;;5041969;28;20065;-60
2023/04/11 04:04:57;;;;;;;15.15;2.60;;;;;;;;;;5042379;28;20049;-60
2023/04/11 04:07:27;;;;;;;10.23;3.22;;;;;;;;;;5044121;28;21069;-60
2023/04/11 04:09:53;;;;;;;11.70;2.40;;;;;;;;;;5043954;28;20132;-59
2023/04/11 04:12:44;;;;;;;14.52;4.25;;;;;;;;;;5043876;28;20119;-59
2023/04/11 04:15:13;;;;;;;12.50;2.75;;;;;;;;;;5042709;28;20041;-61
2023/04/11 04:17:39;;;;;;;10.55;2.90;;;;;;;;;;5040802;28;20037;-60
2023/04/11 04:20:06;;;;;;;6.00;2.72;;;;;;;;;;5031840;28;20052;-59
2023/04/11 04:22:33;;;;;;;7.90;1.95;;;;;;;;;;5026587;28;20500;-59
2023/04/11 04:24:59;;;;;;;12.77;2.45;;;;;;;;;;5029554;28;20041;-59
2023/04/11 04:27:25;;;;;;;12.15;2.42;;;;;;;;;;5040634;28;20041;-59
2023/04/11 04:29:51;;;;;;;9.70;3.70;;;;;;;;;;5036531;28;20049;-60
2023/04/11 04:32:21;;;;;;;9.25;2.67;;;;;;;;;;5031537;28;20034;-59
2023/04/11 04:34:48;;;;;;;6.78;2.60;;;;;;;;;;5025626;28;20053;-59
2023/04/11 04:37:21;;;;;;;13.45;3.15;;;;;;;;;;5027669;28;20037;-59
2023/04/11 04:39:52;;;;;;;6.65;1.80;;;;;;;;;;5026709;28;20134;-59
2023/04/11 04:42:19;;;;;;;14.33;2.57;;;;;;;;;;5074233;27;20044;-59
2023/04/11 04:44:45;;;;;;;7.63;3.90;;;;;;;;;;5053853;28;20179;-59
2023/04/11 04:47:14;;;;;;;14.93;6.32;;;;;;;;;;5052768;28;20528;-59
2023/04/11 04:49:40;;;;;;;9.02;3.08;;;;;;;;;;5069359;28;20079;-59
2023/04/11 04:52:06;;;;;;;8.55;2.03;;;;;;;;;;5065967;28;20194;-59
2023/04/11 04:54:32;;;;;;;6.93;2.33;;;;;;;;;;5066954;28;20036;-59
2023/04/11 04:57:00;;;;;;;8.35;2.38;;;;;;;;;;5062270;28;20043;-59
2023/04/11 04:59:26;;;;;;;4.85;1.98;;;;;;;;;;5068767;28;20051;-60
2023/04/11 05:01:53;;;;;;;10.70;2.38;;;;;;;;;;5080812;27;20036;-59
2023/04/11 05:04:19;;;;;;;7.60;2.78;;;;;;;;;;5063604;27;20041;-59
2023/04/11 05:06:46;;;;;;;11.65;3.28;;;;;;;;;;5068963;28;20048;-59
2023/04/11 05:09:12;;;;;;;14.10;2.75;;;;;;;;;;5069223;28;20134;-59
2023/04/11 05:11:38;;;;;;;10.50;2.72;;;;;;;;;;5065081;28;20047;-60
2023/04/11 05:14:04;;;;;;;16.30;3.15;;;;;;;;;;5066001;28;20476;-59
2023/04/11 05:16:30;;;;;;;9.68;3.42;;;;;;;;;;5053777;28;20212;-59
2023/04/11 05:18:56;;;;;;;9.13;3.42;;;;;;;;;;5059189;28;20563;-59
2023/04/11 05:21:22;;;;;;;15.48;3.83;;;;;;;;;;5063890;28;20505;-59
2023/04/11 05:23:48;;;;;;;5.97;1.95;;;;;;;;;;5067568;28;20389;-59
2023/04/11 05:26:15;;;;;;;10.52;2.75;;;;;;;;;;5069747;28;20048;-59
2023/04/11 05:28:41;;;;;;;9.85;2.33;;;;;;;;;;5063124;28;20048;-59
2023/04/11 05:31:08;;;;;;;14.38;3.00;;;;;;;;;;5067927;28;20033;-61
2023/04/11 05:33:37;;;;;;;12.40;3.33;;;;;;;;;;5065582;28;20036;-59
2023/04/11 05:36:03;;;;;;;11.57;2.97;;;;;;;;;;5063512;28;20070;-59
2023/04/11 05:38:32;;;;;;;13.93;4.15;;;;;;;;;;5065905;28;20658;-59
2023/04/11 05:40:58;;;;;;;13.38;2.47;;;;;;;;;;5069082;28;20063;-58
2023/04/11 05:43:24;;;;;;;5.90;2.67;;;;;;;;;;5069129;28;20055;-59
2023/04/11 05:45:51;;;;;;;14.32;2.90;;;;;;;;;;5071362;28;20049;-60
2023/04/11 05:48:21;;;;;;;9.75;3.15;;;;;;;;;;5070480;28;20040;-60
2023/04/11 05:50:47;;;;;;;11.88;2.30;;;;;;;;;;5064536;28;20635;-60
2023/04/11 05:53:13;;;;;;;7.07;2.65;;;;;;;;;;5066520;28;20032;-59
2023/04/11 05:55:40;;;;;;;6.22;1.65;;;;;;;;;;5065699;28;20048;-59
2023/04/11 05:58:06;;;;;;;9.30;2.88;;;;;;;;;;5067326;28;20040;-59
2023/04/11 06:00:32;;;;;;;5.68;2.40;;;;;;;;;;5068065;28;20500;-59
2023/04/11 06:02:59;;;;;;;10.32;2.50;;;;;;;;;;5067885;28;20048;-60
2023/04/11 06:05:25;;;;;;;9.27;2.15;;;;;;;;;;5062023;28;20352;-60
2023/04/11 06:07:52;;;;;;;9.25;3.28;;;;;;;;;;5059018;28;20166;-60
2023/04/11 06:10:18;;;;;;;9.40;3.10;;;;;;;;;;5057984;28;20036;-59
2023/04/11 06:12:44;;;;;;;9.63;4.30;;;;;;;;;;5063881;28;20421;-59
2023/04/11 06:15:11;;;;;;;12.80;3.60;;;;;;;;;;5065793;28;20175;-60
2023/04/11 06:17:37;;;;;;;7.38;2.70;;;;;;;;;;5066007;28;20119;-59
2023/04/11 06:20:04;;;;;;;9.70;2.80;;;;;;;;;;5063022;28;20605;-59
2023/04/11 06:22:30;;;;;;;9.05;2.42;;;;;;;;;;5066021;28;20157;-59
2023/04/11 06:24:57;;;;;;;15.13;2.92;;;;;;;;;;5060836;28;20208;-60
2023/04/11 06:27:23;;;;;;;9.80;2.35;;;;;;;;;;5061627;28;20598;-59
2023/04/11 06:29:49;;;;;;;8.60;3.17;;;;;;;;;;5066912;28;20509;-59
2023/04/11 06:32:15;;;;;;;5.95;4.10;;;;;;;;;;5079204;28;20476;-59
2023/04/11 06:34:41;;;;;;;14.57;2.70;;;;;;;;;;5076633;28;20045;-60
2023/04/11 06:37:07;;;;;;;11.02;2.65;;;;;;;;;;5079090;28;20044;-60
2023/04/11 06:39:34;;;;;;;11.55;3.10;;;;;;;;;;5075982;28;20036;-59
2023/04/11 06:42:00;;;;;;;11.48;2.55;;;;;;;;;;5080540;28;20048;-60
2023/04/11 06:44:27;;;;;;;14.20;3.25;;;;;;;;;;5062733;28;20079;-60
2023/04/11 06:46:53;;;;;;;22.08;3.10;;;;;;;;;;5080100;28;20190;-59
2023/04/11 06:49:20;;;;;;;11.20;4.45;;;;;;;;;;5080170;28;20036;-59
2023/04/11 06:51:48;;;;;;;14.52;3.38;;;;;;;;;;5077592;28;20044;-59
2023/04/11 06:54:14;;;;;;;21.23;4.00;;;;;;;;;;5077314;28;20132;-59
2023/04/11 06:56:40;;;;;;;13.05;2.88;;;;;;;;;;5081097;28;20119;-59
2023/04/11 06:59:06;;;;;;;7.65;2.30;;;;;;;;;;5077434;28;20617;-60
2023/04/11 07:01:38;;;;;;;7.35;2.78;;;;;;;;;;5080819;28;20041;-59
2023/04/11 07:04:04;;;;;;;6.50;2.55;;;;;;;;;;5085827;28;20103;-59
2023/04/11 07:06:30;;;;;;;11.63;2.63;;;;;;;;;;5070244;28;20131;-60
2023/04/11 07:08:57;;;;;;;3.95;2.17;;;;;;;;;;5087315;27;20048;-59
2023/04/11 07:11:23;;;;;;;12.77;2.95;;;;;;;;;;5086571;28;20032;-59
2023/04/11 07:13:49;;;;;;;11.80;4.03;;;;;;;;;;5087871;28;20095;-60
2023/04/11 07:16:15;;;;;;;13.95;4.22;;;;;;;;;;5087939;28;20939;-60
2023/04/11 07:18:41;;;;;;;15.07;3.08;;;;;;;;;;5088862;28;20065;-59
2023/04/11 07:21:12;;;;;;;17.27;2.65;;;;;;;;;;5086361;28;20048;-59
2023/04/11 07:23:38;;;;;;;6.05;2.78;;;;;;;;;;5086524;28;20044;-59
2023/04/11 07:26:07;;;;;;;17.40;3.13;;;;;;;;;;5087571;27;20109;-59
2023/04/11 07:28:34;;;;;;;13.27;4.35;;;;;;;;;;5071909;28;20044;-59
2023/04/11 07:31:00;;;;;;;10.10;3.47;;;;;;;;;;5086711;28;20506;-59
2023/04/11 07:33:26;;;;;;;13.70;2.97;;;;;;;;;;5070854;28;20048;-59
2023/04/11 07:35:52;;;;;;;6.65;2.35;;;;;;;;;;5087321;28;20102;-59
2023/04/11 07:38:26;;;;;;;10.20;2.60;;;;;;;;;;5087686;28;20472;-59
2023/04/11 07:40:52;;;;;;;6.18;2.60;;;;;;;;;;5087819;27;20314;-59
2023/04/11 07:43:18;;;;;;;17.75;4.68;;;;;;;;;;5070783;28;20511;-59
2023/04/11 07:45:45;;;;;;;14.23;3.00;;;;;;;;;;5088167;27;20435;-59
2023/04/11 07:48:11;;;;;;;12.50;3.53;;;;;;;;;;5087702;28;20653;-59
2023/04/11 07:50:37;;;;;;;10.07;4.50;;;;;;;;;;5086805;28;20054;-59
2023/04/11 07:53:03;;;;;;;20.27;3.75;;;;;;;;;;5087650;28;20045;-59
2023/04/11 07:55:29;;;;;;;8.32;2.83;;;;;;;;;;5086994;28;20046;-59
2023/04/11 07:57:55;;;;;;;14.10;2.55;;;;;;;;;;5087433;28;20082;-60
2023/04/11 08:00:22;;;;;;;8.15;2.78;;;;;;;;;;5086387;28;20124;-59
2023/04/11 08:02:48;;;;;;;12.80;3.47;;;;;;;;;;5085570;28;20040;-60
2023/04/11 08:05:14;;;;;;;9.07;3.25;;;;;;;;;;5088341;28;20055;-60
2023/04/11 08:07:40;;;;;;;8.80;4.15;;;;;;;;;;5086483;28;20411;-59
2023/04/11 08:10:07;;;;;;;12.23;3.10;;;;;;;;;;5087256;28;20106;-59
2023/04/11 08:12:33;;;;;;;11.60;2.95;;;;;;;;;;5084092;28;20052;-60
2023/04/11 08:14:59;;;;;;;10.98;2.70;;;;;;;;;;5085983;28;20036;-59
2023/04/11 08:17:27;;;;;;;10.00;3.13;;;;;;;;;;5084637;28;20127;-59
2023/04/11 08:19:54;;;;;;;10.80;2.83;;;;;;;;;;5084818;28;20075;-60
2023/04/11 08:22:20;;;;;;;10.95;4.75;;;;;;;;;;5085884;28;20040;-60
2023/04/11 08:24:46;;;;;;;14.07;4.57;;;;;;;;;;5087044;28;20151;-60
2023/04/11 08:27:12;;;;;;;10.07;3.80;;;;;;;;;;5086367;28;20136;-59
2023/04/11 08:29:38;;;;;;;7.68;3.95;;;;;;;;;;5085765;28;20375;-60
2023/04/11 08:32:04;;;;;;;12.05;3.95;;;;;;;;;;5084109;28;20124;-59
2023/04/11 08:34:33;;;;;;;12.50;3.30;;;;;;;;;;5085390;28;20044;-60
2023/04/11 08:36:59;;;;;;;13.35;3.60;;;;;;;;;;5082787;28;20048;-60
2023/04/11 08:39:25;;;;;;;13.13;2.60;;;;;;;;;;5086324;28;20048;-60
2023/04/11 08:41:52;;;;;;;10.63;2.95;;;;;;;;;;5086578;28;20044;-60
2023/04/11 08:44:18;;;;;;;11.18;3.20;;;;;;;;;;5086949;28;20040;-60
2023/04/11 08:46:44;;;;;;;9.75;3.40;;;;;;;;;;5086188;28;20068;-60
2023/04/11 08:49:10;;;;;;;7.68;4.22;;;;;;;;;;5087222;28;20040;-59
2023/04/11 08:51:37;;;;;;;12.32;2.90;;;;;;;;;;5087174;28;20047;-60
2023/04/11 08:54:04;;;;;;;9.55;2.50;;;;;;;;;;5086884;28;20586;-60
2023/04/11 08:56:34;;;;;;;9.27;3.25;;;;;;;;;;5086592;28;20044;-60
2023/04/11 08:59:00;;;;;;;12.52;3.33;;;;;;;;;;5082466;28;20105;-60
2023/04/11 09:01:33;;;;;;;7.93;3.78;;;;;;;;;;5086126;28;20040;-60
2023/04/11 09:04:00;;;;;;;7.65;3.58;;;;;;;;;;5085038;28;20047;-60
2023/04/11 09:06:32;;;;;;;8.85;2.50;;;;;;;;;;5084098;28;20564;-60
2023/04/11 09:09:05;;;;;;;11.25;3.92;;;;;;;;;;5085430;28;20093;-60
2023/04/11 09:11:49;;;;;;;12.15;3.80;;;;;;;;;;5086103;28;20076;-60
2023/04/11 09:14:16;;;;;;;12.10;2.72;;;;;;;;;;5083797;28;20051;-60
2023/04/11 09:17:01;;;;;;;11.45;2.65;;;;;;;;;;5069611;28;20043;-60
2023/04/11 09:19:28;;;;;;;14.32;3.20;;;;;;;;;;5085140;28;22199;-60
2023/04/11 09:21:56;;;;;;;17.17;3.70;;;;;;;;;;5085517;28;20044;-60
2023/04/11 09:24:24;;;;;;;12.02;3.35;;;;;;;;;;5085648;28;20510;-60
2023/04/11 09:26:50;;;;;;;13.32;3.42;;;;;;;;;;5084739;28;20088;-60
2023/04/11 09:29:36;;;;;;;13.65;2.78;;;;;;;;;;5086166;28;20119;-60
2023/04/11 09:32:02;;;;;;;13.80;3.35;;;;;;;;;;5083561;27;20048;-60
2023/04/11 09:34:29;;;;;;;7.22;3.90;;;;;;;;;;5087156;28;20527;-60
2023/04/11 09:36:55;;;;;;;13.82;2.85;;;;;;;;;;5084782;28;20460;-60
2023/04/11 09:39:23;;;;;;;9.68;2.45;;;;;;;;;;5086006;28;20036;-60
2023/04/11 09:41:49;;;;;;;13.60;3.85;;;;;;;;;;5086207;27;20063;-60
2023/04/11 09:44:15;;;;;;;20.67;3.95;;;;;;;;;;5085570;28;20463;-60
2023/04/11 09:47:00;;;;;;;6.80;2.67;;;;;;;;;;5086039;28;20040;-60
2023/04/11 09:49:26;;;;;;;13.10;3.38;;;;;;;;;;5085045;27;20690;-60
2023/04/11 09:51:52;;;;;;;14.75;2.90;;;;;;;;;;5086652;28;20048;-60
2023/04/11 09:54:22;;;;;;;8.77;3.03;;;;;;;;;;5084283;28;20138;-60
2023/04/11 09:56:48;;;;;;;7.38;3.25;;;;;;;;;;5085849;28;20109;-60
2023/04/11 09:59:15;;;;;;;10.82;2.45;;;;;;;;;;5068204;28;20045;-60
2023/04/11 10:01:41;;;;;;;10.27;3.40;;;;;;;;;;5085681;27;20051;-60
2023/04/11 10:04:09;;;;;;;10.85;3.00;;;;;;;;;;5067376;28;20037;-60
2023/04/11 10:07:00;;;;;;;6.47;1.90;;;;;;;;;;5085781;28;20620;-60
2023/04/11 10:09:27;;;;;;;10.48;4.07;;;;;;;;;;5081487;28;20166;-60
2023/04/11 10:11:53;;;;;;;8.10;3.47;;;;;;;;;;5085412;28;20047;-60
2023/04/11 10:14:38;;;;;;;12.93;3.47;;;;;;;;;;5083447;28;20040;-60
2023/04/11 10:17:15;;;;;;;5.15;2.40;;;;;;;;;;5084574;28;20589;-60
2023/04/11 10:19:42;;;;;;;8.90;2.22;;;;;;;;;;5086436;28;20043;-60
2023/04/11 10:22:09;;;;;;;11.73;2.35;;;;;;;;;;5082825;28;20057;-60
2023/04/11 10:24:35;;;;;;;9.45;3.10;;;;;;;;;;5085063;28;20047;-60
2023/04/11 10:27:05;;;;;;;8.98;4.03;;;;;;;;;;5083091;28;20040;-60
2023/04/11 10:29:39;;;;;;;13.63;3.25;;;;;;;;;;5085031;28;20209;-60
2023/04/11 10:32:09;;;;;;;9.77;3.30;;;;;;;;;;5067620;28;20044;-60
2023/04/11 10:34:37;;;;;;;9.68;2.33;;;;;;;;;;5067308;28;20222;-60
2023/04/11 10:37:09;;;;;;;6.95;1.83;;;;;;;;;;5082589;27;20040;-60
2023/04/11 10:40:11;;;;;;;10.57;2.65;;;;;;;;;;5085210;28;20640;-60
2023/04/11 10:42:41;;;;;;;11.80;2.87;;;;;;;;;;5069061;28;20114;-60
2023/04/11 10:45:26;;;;;;;9.30;3.05;;;;;;;;;;5067170;28;20056;-60
2023/04/11 10:48:02;;;;;;;6.20;2.47;;;;;;;;;;5082649;28;20543;-60
2023/04/11 10:50:28;;;;;;;9.60;3.10;;;;;;;;;;5084364;28;20063;-60
2023/04/11 10:52:57;;;;;;;8.70;2.65;;;;;;;;;;5082769;27;20105;-60
2023/04/11 10:55:25;;;;;;;13.02;4.25;;;;;;;;;;5085267;28;20569;-60
2023/04/11 10:58:07;;;;;;;10.70;2.42;;;;;;;;;;5083990;28;20060;-60
2023/04/11 11:00:51;;;;;;;10.77;2.35;;;;;;;;;;5084727;28;20529;-60
2023/04/11 11:03:18;;;;;;;11.48;3.20;;;;;;;;;;5082621;28;20055;-60
2023/04/11 11:05:44;;;;;;;12.90;4.00;;;;;;;;;;5083619;28;20047;-60
2023/04/11 11:08:10;;;;;;;10.98;3.13;;;;;;;;;;5083659;27;20044;-60
2023/04/11 11:10:45;;;;;;;11.32;3.50;;;;;;;;;;5083307;28;20661;-60
2023/04/11 11:13:14;;;;;;;6.70;3.03;;;;;;;;;;5067916;28;20062;-59
2023/04/11 11:15:46;;;;;;;6.53;2.72;;;;;;;;;;5083794;28;20040;-60
2023/04/11 11:18:14;;;;;;;3.33;1.67;;;;;;;;;;5084796;28;20068;-60
2023/04/11 11:20:40;;;;;;;5.53;1.92;;;;;;;;;;5083087;27;20119;-60
2023/04/11 11:23:07;;;;;;;13.82;2.25;;;;;;;;;;5084877;28;20099;-60
2023/04/11 11:25:33;;;;;;;6.40;1.95;;;;;;;;;;5084456;28;20048;-60
2023/04/11 11:28:00;;;;;;;6.35;1.67;;;;;;;;;;5083701;28;20037;-60
2023/04/11 11:30:26;;;;;;;13.02;2.90;;;;;;;;;;5083837;28;20044;-60
2023/04/11 11:32:53;;;;;;;8.07;3.65;;;;;;;;;;5084395;28;20164;-60
2023/04/11 11:35:19;;;;;;;4.90;2.15;;;;;;;;;;5083958;28;20455;-60
2023/04/11 11:37:45;;;;;;;8.52;3.22;;;;;;;;;;5082328;28;20064;-60
2023/04/11 11:40:12;;;;;;;11.00;2.22;;;;;;;;;;5084832;28;20040;-60
2023/04/11 11:42:38;;;;;;;7.35;2.17;;;;;;;;;;5082520;28;20095;-61
2023/04/11 11:45:34;;;;;;;9.65;2.80;;;;;;;;;;5084101;28;20126;-60
2023/04/11 11:48:00;;;;;;;7.80;2.60;;;;;;;;;;5062917;28;20046;-60
2023/04/11 11:50:26;;;;;;;11.07;2.63;;;;;;;;;;5086537;28;20534;-60
2023/04/11 11:52:52;;;;;;;8.00;3.22;;;;;;;;;;5087033;28;20122;-60
2023/04/11 11:55:18;;;;;;;8.50;2.75;;;;;;;;;;5086289;28;20040;-60
2023/04/11 11:57:45;;;;;;;9.65;4.53;;;;;;;;;;5086839;28;21025;-60
2023/04/11 12:00:11;;;;;;;10.75;2.55;;;;;;;;;;5086103;28;20064;-60
2023/04/11 12:02:38;;;;;;;6.30;2.05;;;;;;;;;;5085162;28;20135;-60
2023/04/11 12:05:05;;;;;;;11.68;2.17;;;;;;;;;;5086176;28;20032;-60
2023/04/11 12:07:32;;;;;;;6.63;2.00;;;;;;;;;;5085976;28;20040;-60
2023/04/11 12:10:01;;;;;;;6.72;2.38;;;;;;;;;;5087193;28;20040;-60
2023/04/11 12:12:37;;;;;;;5.88;2.25;;;;;;;;;;5069164;28;20044;-60
2023/04/11 12:15:03;;;;;;;5.70;1.98;;;;;;;;;;5086783;28;20064;-60
2023/04/11 12:17:35;;;;;;;8.02;2.22;;;;;;;;;;5084908;28;20129;-60
2023/04/11 12:20:05;;;;;;;6.53;2.30;;;;;;;;;;5086536;28;20098;-60
2023/04/11 12:22:31;;;;;;;8.23;2.55;;;;;;;;;;5086356;28;20463;-60
2023/04/11 12:25:07;;;;;;;5.22;1.73;;;;;;;;;;5086292;28;20040;-60
2023/04/11 12:27:35;;;;;;;15.65;3.90;;;;;;;;;;5087166;28;20101;-60
2023/04/11 12:30:01;;;;;;;10.07;3.03;;;;;;;;;;5086668;28;20056;-60
2023/04/11 12:32:28;;;;;;;7.10;2.30;;;;;;;;;;5084077;28;20089;-60
2023/04/11 12:34:54;;;;;;;8.18;2.25;;;;;;;;;;5085402;28;20039;-60
2023/04/11 12:37:20;;;;;;;7.55;2.08;;;;;;;;;;5086061;28;20036;-60
2023/04/11 12:39:47;;;;;;;6.20;1.90;;;;;;;;;;5086650;28;20044;-60
2023/04/11 12:42:13;;;;;;;6.32;1.98;;;;;;;;;;5085878;28;20063;-60
2023/04/11 12:44:39;;;;;;;7.85;2.60;;;;;;;;;;5084539;28;20526;-60
2023/04/11 12:47:05;;;;;;;6.47;1.98;;;;;;;;;;5086330;28;20119;-60
2023/04/11 12:49:31;;;;;;;8.48;2.60;;;;;;;;;;5069356;28;20036;-60
2023/04/11 12:51:57;;;;;;;9.57;3.05;;;;;;;;;;5086752;28;20040;-60
2023/04/11 12:54:24;;;;;;;9.82;1.98;;;;;;;;;;5083401;28;21304;-60
2023/04/11 12:56:50;;;;;;;6.47;2.03;;;;;;;;;;5086580;28;20326;-60
2023/04/11 12:59:16;;;;;;;6.20;2.05;;;;;;;;;;5084010;28;20827;-60
2023/04/11 13:01:42;;;;;;;7.60;2.45;;;;;;;;;;5085682;28;20054;-60
2023/04/11 13:04:09;;;;;;;8.30;2.17;;;;;;;;;;5068645;28;20123;-60
2023/04/11 13:06:36;;;;;;;4.55;1.90;;;;;;;;;;5085394;28;20036;-60
2023/04/11 13:09:04;;;;;;;6.93;1.95;;;;;;;;;;5085389;28;20075;-60
2023/04/11 13:11:30;;;;;;;4.32;2.15;;;;;;;;;;5085721;28;20081;-60
2023/04/11 13:13:56;;;;;;;6.28;2.28;;;;;;;;;;5082762;28;20103;-60
2023/04/11 13:16:22;;;;;;;10.52;2.33;;;;;;;;;;5085700;28;20093;-60
2023/04/11 13:18:49;;;;;;;10.63;3.50;;;;;;;;;;5085250;28;20036;-60
2023/04/11 13:21:15;;;;;;;10.27;3.83;;;;;;;;;;5085917;28;20143;-60
2023/04/11 13:23:41;;;;;;;9.93;2.92;;;;;;;;;;5084708;28;20577;-60
2023/04/11 13:26:07;;;;;;;8.85;2.85;;;;;;;;;;5084301;28;20032;-60
2023/04/11 13:28:33;;;;;;;9.18;2.25;;;;;;;;;;5086943;28;20044;-60
2023/04/11 13:31:00;;;;;;;5.65;1.73;;;;;;;;;;5084021;28;20183;-60
2023/04/11 13:33:26;;;;;;;7.05;2.17;;;;;;;;;;5085773;28;20523;-60
2023/04/11 13:35:52;;;;;;;6.63;2.67;;;;;;;;;;5067274;28;21380;-60
2023/04/11 13:38:18;;;;;;;5.10;2.22;;;;;;;;;;5085000;28;20481;-60
2023/04/11 13:40:44;;;;;;;8.25;2.03;;;;;;;;;;5083689;28;20171;-60
2023/04/11 13:43:10;;;;;;;9.50;2.25;;;;;;;;;;5084606;27;20036;-60
2023/04/11 13:45:36;;;;;;;7.63;2.75;;;;;;;;;;5084852;28;20074;-60
2023/04/11 13:48:02;;;;;;;10.25;2.90;;;;;;;;;;5084019;28;20466;-60
2023/04/11 13:50:29;;;;;;;9.65;2.83;;;;;;;;;;5069140;28;20064;-60
2023/04/11 13:52:56;;;;;;;12.02;3.33;;;;;;;;;;5084460;28;20595;-60
2023/04/11 13:55:22;;;;;;;11.15;2.45;;;;;;;;;;5086499;28;20858;-60
2023/04/11 13:57:49;;;;;;;6.32;2.50;;;;;;;;;;5084623;28;20127;-60
2023/04/11 14:00:15;;;;;;;12.27;2.88;;;;;;;;;;5068253;28;20570;-60
2023/04/11 14:02:41;;;;;;;8.60;2.53;;;;;;;;;;5084216;28;20051;-60
2023/04/11 14:05:10;;;;;;;9.40;3.08;;;;;;;;;;5086317;28;20038;-60
2023/04/11 14:07:36;;;;;;;9.95;3.83;;;;;;;;;;5084641;28;20033;-60
2023/04/11 14:10:02;;;;;;;9.05;2.60;;;;;;;;;;5085675;28;20573;-60
2023/04/11 14:12:28;;;;;;;9.30;2.47;;;;;;;;;;5082919;28;20537;-60
2023/04/11 14:14:54;;;;;;;6.03;2.95;;;;;;;;;;5086075;28;20119;-60
2023/04/11 14:17:20;;;;;;;7.75;2.20;;;;;;;;;;5085235;28;20138;-60
2023/04/11 14:19:46;;;;;;;4.40;1.02;;;;;;;;;;5085668;28;20052;-60
2023/04/11 14:22:12;;;;;;;3.35;1.38;;;;;;;;;;5083421;28;20119;-60
2023/04/11 14:24:38;;;;;;;3.63;1.48;;;;;;;;;;5086237;28;20040;-60
2023/04/11 14:27:05;;;;;;;2.65;1.17;;;;;;;;;;5084985;28;20099;-60
2023/04/11 14:29:33;;;;;;;4.22;1.52;;;;;;;;;;5086153;28;20132;-60
2023/04/11 14:31:59;;;;;;;8.27;2.50;;;;;;;;;;5084544;28;20127;-60
2023/04/11 14:34:25;;;;;;;7.50;1.27;;;;;;;;;;5083540;28;20117;-60
2023/04/11 14:36:51;;;;;;;2.80;1.05;;;;;;;;;;5085199;28;20049;-60
2023/04/11 14:39:18;;;;;;;2.22;0.88;;;;;;;;;;5084772;28;20363;-61
2023/04/11 14:41:44;;;;;;;6.32;1.30;;;;;;;;;;5084653;28;20185;-60
2023/04/11 14:44:10;;;;;;;3.10;1.55;;;;;;;;;;5084810;28;20040;-60
2023/04/11 14:46:36;;;;;;;4.65;1.77;;;;;;;;;;5084715;28;20170;-60
2023/04/11 14:49:02;;;;;;;4.47;1.88;;;;;;;;;;5082741;28;20142;-60
2023/04/11 14:51:29;;;;;;;4.63;1.38;;;;;;;;;;5085760;28;20041;-60
2023/04/11 14:53:56;;;;;;;7.40;1.67;;;;;;;;;;5084989;28;20988;-60
2023/04/11 14:56:22;;;;;;;7.57;1.77;;;;;;;;;;5084529;28;20587;-60
2023/04/11 14:58:49;;;;;;;9.13;2.10;;;;;;;;;;5084301;28;20114;-60
2023/04/11 15:01:16;;;;;;;6.85;1.77;;;;;;;;;;5083713;28;20067;-60
2023/04/11 15:03:42;;;;;;;6.30;1.88;;;;;;;;;;5084060;28;20566;-60
2023/04/11 15:06:09;;;;;;;5.38;1.52;;;;;;;;;;5084154;28;20044;-60
2023/04/11 15:08:36;;;;;;;4.05;2.05;;;;;;;;;;5085044;28;20044;-60
2023/04/11 15:11:02;;;;;;;6.88;2.75;;;;;;;;;;5082777;28;20543;-60
2023/04/11 15:13:28;;;;;;;10.43;2.38;;;;;;;;;;5085188;28;20623;-60
2023/04/11 15:16:03;;;;;;;5.88;2.40;;;;;;;;;;5084502;28;20646;-60
2023/04/11 15:18:30;;;;;;;4.75;1.83;;;;;;;;;;5083288;28;20131;-60
2023/04/11 15:20:57;;;;;;;7.32;1.50;;;;;;;;;;5083684;28;20040;-60
2023/04/11 15:23:24;;;;;;;9.43;3.47;;;;;;;;;;5085300;28;20029;-60
2023/04/11 15:25:54;;;;;;;10.15;3.65;;;;;;;;;;5087677;28;20043;-60
2023/04/11 15:28:20;;;;;;;8.05;2.28;;;;;;;;;;5088175;28;20059;-60
2023/04/11 15:30:47;;;;;;;8.68;3.08;;;;;;;;;;5087754;28;20127;-60
2023/04/11 15:33:14;;;;;;;9.93;3.55;;;;;;;;;;5071086;28;20575;-60
2023/04/11 15:35:41;;;;;;;10.55;2.30;;;;;;;;;;5087172;28;20047;-60
2023/04/11 15:38:07;;;;;;;5.15;3.08;;;;;;;;;;5088017;28;20052;-60
2023/04/11 15:40:34;;;;;;;4.60;2.08;;;;;;;;;;5087507;28;20043;-60
2023/04/11 15:43:00;;;;;;;4.15;2.08;;;;;;;;;;5086118;28;20062;-60
2023/04/11 15:45:27;;;;;;;8.35;3.00;;;;;;;;;;5087870;28;20092;-60
2023/04/11 15:47:53;;;;;;;9.38;2.40;;;;;;;;;;5084948;28;20593;-60
2023/04/11 15:50:19;;;;;;;4.05;1.70;;;;;;;;;;5086659;28;20052;-60
2023/04/11 15:52:46;;;;;;;7.15;2.85;;;;;;;;;;5087367;28;20062;-60
2023/04/11 15:55:13;;;;;;;7.47;2.83;;;;;;;;;;5086834;27;20874;-60
2023/04/11 15:57:39;;;;;;;4.20;1.42;;;;;;;;;;5085740;28;20055;-60
2023/04/11 16:00:08;;;;;;;5.68;2.75;;;;;;;;;;5087662;28;20523;-60
2023/04/11 16:02:35;;;;;;;4.22;2.35;;;;;;;;;;5085507;28;20032;-60
2023/04/11 16:05:02;;;;;;;6.45;1.95;;;;;;;;;;5087577;28;20128;-60
2023/04/11 16:07:28;;;;;;;6.28;2.50;;;;;;;;;;5070730;28;20454;-60
2023/04/11 16:09:54;;;;;;;8.70;3.38;;;;;;;;;;5087333;28;20575;-61
2023/04/11 16:12:20;;;;;;;9.05;4.50;;;;;;;;;;5086129;28;20036;-60
2023/04/11 16:14:46;;;;;;;6.38;3.47;;;;;;;;;;5086004;28;20173;-61
2023/04/11 16:17:17;;;;;;;7.18;3.58;;;;;;;;;;5087172;28;20047;-60
2023/04/11 16:19:44;;;;;;;5.13;3.10;;;;;;;;;;5087068;28;20123;-60
2023/04/11 16:22:10;;;;;;;5.32;2.50;;;;;;;;;;5086668;27;20528;-60
2023/04/11 16:24:36;;;;;;;5.85;2.28;;;;;;;;;;5086275;28;20053;-60
2023/04/11 16:27:02;;;;;;;8.45;2.50;;;;;;;;;;5086375;28;20115;-60
2023/04/11 16:29:29;;;;;;;4.57;2.30;;;;;;;;;;5087873;28;20823;-60
2023/04/11 16:31:55;;;;;;;10.35;2.65;;;;;;;;;;5086040;28;20040;-61
2023/04/11 16:34:21;;;;;;;9.50;3.70;;;;;;;;;;5085901;28;20074;-60
2023/04/11 16:36:47;;;;;;;6.68;2.88;;;;;;;;;;5086498;28;20036;-60
2023/04/11 16:39:13;;;;;;;5.38;2.58;;;;;;;;;;5087873;28;20040;-60
2023/04/11 16:41:39;;;;;;;7.05;2.45;;;;;;;;;;5086592;28;20048;-60
2023/04/11 16:44:09;;;;;;;6.65;2.13;;;;;;;;;;5087280;28;20040;-60
2023/04/11 16:46:36;;;;;;;6.30;2.10;;;;;;;;;;5087199;28;20052;-60
2023/04/11 16:49:02;;;;;;;8.60;3.83;;;;;;;;;;5086234;27;20040;-60
2023/04/11 16:51:28;;;;;;;6.95;2.72;;;;;;;;;;5087132;28;20044;-60
2023/04/11 16:53:54;;;;;;;10.02;3.15;;;;;;;;;;5086572;28;20141;-60
2023/04/11 16:56:21;;;;;;;8.60;1.95;;;;;;;;;;5087070;28;20044;-60
2023/04/11 16:58:47;;;;;;;5.93;1.85;;;;;;;;;;5085607;28;20679;-60
2023/04/11 17:01:13;;;;;;;7.78;2.30;;;;;;;;;;5085265;28;20110;-60
2023/04/11 17:03:39;;;;;;;10.57;2.45;;;;;;;;;;5086056;28;20050;-60
2023/04/11 17:06:12;;;;;;;8.90;3.35;;;;;;;;;;5084342;28;20518;-60
2023/04/11 17:08:39;;;;;;;12.65;2.95;;;;;;;;;;5086223;28;20047;-60
2023/04/11 17:11:07;;;;;;;11.52;2.92;;;;;;;;;;5085560;28;20040;-60
2023/04/11 17:13:33;;;;;;;4.68;1.88;;;;;;;;;;5086170;28;20048;-60
2023/04/11 17:16:00;;;;;;;8.60;2.40;;;;;;;;;;5085401;28;20123;-60
2023/04/11 17:18:26;;;;;;;6.70;2.70;;;;;;;;;;5084542;28;20097;-60